Time;durP1;ratioP1;P1;durP2;ratioP2;P2;SDS_P1;SDS_P2;PMS_P1;PMS_P2;Temp;Humidity;BMP_temperature;BMP_pressure;BME280_temperature;BME280_humidity;BME280_pressure;Samples;Min_cycle;Max_cycle;Signal;HPM_P1;HPM_P2
2022/11/03 00:01:42;;;;;;;13.80;3.05;;;;;;;13.24;64.19;101220.25;3579530;40;20048;-61
2022/11/03 00:04:11;;;;;;;12.48;3.05;;;;;;;13.28;63.87;101217.34;3580127;40;20064;-60
2022/11/03 00:06:38;;;;;;;14.52;3.67;;;;;;;13.27;63.96;101212.94;3577015;40;20401;-61
2022/11/03 00:09:08;;;;;;;14.95;3.45;;;;;;;13.29;63.83;101205.59;3579598;40;20151;-61
2022/11/03 00:11:36;;;;;;;14.75;3.10;;;;;;;13.29;64.23;101203.78;3578254;40;20130;-60
2022/11/03 00:14:04;;;;;;;13.70;2.78;;;;;;;13.27;64.04;101197.59;3577826;40;20060;-60
2022/11/03 00:16:29;;;;;;;13.93;2.70;;;;;;;13.26;63.83;101200.38;3578970;40;20384;-60
2022/11/03 00:18:55;;;;;;;13.20;3.00;;;;;;;13.31;63.90;101200.94;3568483;40;20056;-60
2022/11/03 00:21:22;;;;;;;13.70;2.63;;;;;;;13.32;63.81;101197.28;3578276;40;20142;-61
2022/11/03 00:23:48;;;;;;;12.38;2.58;;;;;;;13.33;64.08;101196.31;3579099;40;20060;-60
2022/11/03 00:26:24;;;;;;;11.88;2.60;;;;;;;13.30;63.72;101202.78;3578854;40;20060;-61
2022/11/03 00:28:53;;;;;;;13.75;3.15;;;;;;;13.28;63.60;101183.13;3579450;40;20122;-61
2022/11/03 00:31:23;;;;;;;11.23;2.88;;;;;;;13.31;63.60;101177.50;3580056;40;20060;-60
2022/11/03 00:33:50;;;;;;;11.80;2.53;;;;;;;13.35;63.16;101183.56;3580328;40;20072;-61
2022/11/03 00:36:26;;;;;;;9.95;2.92;;;;;;;13.36;63.41;101177.22;3580265;40;20056;-60
2022/11/03 00:38:53;;;;;;;12.93;3.22;;;;;;;13.37;63.35;101171.69;3578756;40;20346;-60
2022/11/03 00:41:21;;;;;;;9.95;2.58;;;;;;;13.38;63.07;101164.47;3569252;40;20071;-61
2022/11/03 00:43:48;;;;;;;14.02;2.70;;;;;;;12.94;63.30;101092.72;3579814;40;20064;-60
2022/11/03 00:46:15;;;;;;;8.88;2.40;;;;;;;13.44;62.98;101145.13;3576822;40;20138;-61
2022/11/03 00:48:41;;;;;;;9.07;2.80;;;;;;;13.47;62.96;101153.88;3581192;40;20196;-60
2022/11/03 00:51:10;;;;;;;9.55;2.47;;;;;;;13.48;62.85;101152.09;3579867;40;20137;-60
2022/11/03 00:53:49;;;;;;;14.55;3.13;;;;;;;13.49;63.01;101145.69;3575784;40;20134;-61
2022/11/03 00:56:22;;;;;;;11.77;2.78;;;;;;;13.49;63.18;101140.31;3578940;40;20207;-60
2022/11/03 00:58:50;;;;;;;11.15;2.70;;;;;;;13.51;63.23;101141.06;3578753;40;20057;-61
2022/11/03 01:01:22;;;;;;;11.00;2.53;;;;;;;13.35;63.02;101118.75;3580390;40;20436;-60
2022/11/03 01:06:50;;;;;;;15.27;3.08;;;;;;;13.55;62.70;101123.66;3577449;40;20091;-60
2022/11/03 01:09:24;;;;;;;10.75;2.78;;;;;;;13.56;62.54;101128.09;3567076;40;20051;-60
2022/11/03 01:11:58;;;;;;;;;;;;;;;13.57;63.02;101123.53;3579594;40;20056;-60
2022/11/03 01:14:32;;;;;;;10.57;2.63;;;;;;;13.42;62.54;101085.84;3577511;40;20148;-60
2022/11/03 01:16:58;;;;;;;;;;;;;;;13.39;62.78;101082.50;3578915;40;20343;-60
2022/11/03 01:19:24;;;;;;;9.52;2.60;;;;;;;13.62;62.66;101119.56;3574227;40;19936;-60
2022/11/03 01:21:52;;;;;;;10.85;2.30;;;;;;;13.65;62.56;101115.78;3580146;40;20059;-60
2022/11/03 01:24:18;;;;;;;13.02;2.72;;;;;;;13.67;62.38;101109.31;3579613;40;20064;-60
2022/11/03 01:26:43;;;;;;;10.48;2.50;;;;;;;13.70;62.40;101111.78;3568622;40;20060;-60
2022/11/03 01:29:09;;;;;;;9.20;2.65;;;;;;;13.72;62.23;101110.81;3578326;40;20052;-60
2022/11/03 01:31:34;;;;;;;10.57;2.92;;;;;;;13.69;62.66;101096.53;3577322;40;20075;-61
2022/11/03 01:34:00;;;;;;;13.32;2.50;;;;;;;13.74;62.51;101109.75;3579879;40;20299;-60
2022/11/03 01:36:26;;;;;;;13.57;2.55;;;;;;;13.74;62.17;101092.66;3577421;40;20354;-61
2022/11/03 01:38:55;;;;;;;11.02;2.42;;;;;;;13.63;62.32;101069.09;3577990;40;20052;-61
2022/11/03 01:41:24;;;;;;;11.52;2.95;;;;;;;13.76;62.27;101086.16;3576223;40;20052;-61
2022/11/03 01:44:11;;;;;;;13.63;2.92;;;;;;;13.79;62.47;101079.69;3577543;40;20072;-61
2022/11/03 01:46:52;;;;;;;10.75;2.30;;;;;;;13.79;62.32;101079.69;3576997;40;20379;-61
2022/11/03 01:49:37;;;;;;;10.70;2.80;;;;;;;13.77;62.58;101070.84;3578947;40;20389;-61
2022/11/03 01:52:49;;;;;;;9.95;2.67;;;;;;;13.74;62.93;101065.66;3577170;40;20051;-61
2022/11/03 01:55:40;;;;;;;10.50;2.65;;;;;;;13.72;62.86;101056.78;3578569;40;20058;-61
2022/11/03 01:58:13;;;;;;;12.55;3.15;;;;;;;13.76;62.58;101058.28;3579248;40;20488;-60
2022/11/03 02:00:44;;;;;;;;;;;;;;;13.72;63.14;101067.59;3576131;40;20070;-62
2022/11/03 02:03:11;;;;;;;10.60;2.65;;;;;;;13.74;63.18;101060.25;3578208;40;19939;-60
2022/11/03 02:05:39;;;;;;;14.10;2.78;;;;;;;13.76;62.84;101063.69;3576040;40;20068;-60
2022/11/03 02:08:40;;;;;;;11.35;3.00;;;;;;;13.78;62.76;101056.34;3577518;40;21286;-60
2022/11/03 02:13:51;;;;;;;9.52;2.50;;;;;;;13.80;63.02;101051.72;3578862;40;20435;-60
2022/11/03 02:16:22;;;;;;;11.30;2.80;;;;;;;13.80;62.73;101038.19;3577951;40;20052;-61
2022/11/03 02:18:50;;;;;;;9.15;2.45;;;;;;;13.77;62.84;101039.28;3579676;40;20092;-61
2022/11/03 02:22:01;;;;;;;11.88;2.45;;;;;;;13.76;62.73;101037.53;3575397;40;20056;-61
2022/11/03 02:24:49;;;;;;;10.13;2.80;;;;;;;13.76;62.68;101034.81;3575697;40;20063;-60
2022/11/03 02:27:15;;;;;;;10.00;2.70;;;;;;;13.72;62.87;101025.22;3576145;40;20117;-61
2022/11/03 02:29:41;;;;;;;8.63;2.55;;;;;;;13.76;62.73;101025.84;3577367;40;20319;-61
2022/11/03 02:32:38;;;;;;;12.23;2.78;;;;;;;13.70;63.25;101028.03;3579511;40;20067;-60
2022/11/03 02:35:50;;;;;;;9.48;2.20;;;;;;;13.69;62.91;101020.91;3578559;40;20056;-60
2022/11/03 02:38:22;;;;;;;10.27;2.92;;;;;;;13.68;62.93;101008.38;3573855;40;20040;-61
2022/11/03 02:40:56;;;;;;;11.93;2.85;;;;;;;13.57;63.57;101005.56;3578896;40;20057;-61
2022/11/03 02:43:26;;;;;;;10.27;2.58;;;;;;;13.49;63.80;100980.97;3577841;40;20052;-60
2022/11/03 02:45:54;;;;;;;9.68;2.95;;;;;;;13.62;64.28;101006.09;3577262;40;20059;-60
2022/11/03 02:48:20;;;;;;;16.45;2.72;;;;;;;13.62;63.77;100997.16;3578192;40;20058;-60
2022/11/03 02:50:48;;;;;;;12.40;3.03;;;;;;;13.61;63.99;100988.19;3576458;40;21472;-60
2022/11/03 02:53:15;;;;;;;9.60;2.80;;;;;;;13.62;63.93;100997.16;3581734;40;20068;-60
2022/11/03 02:55:59;;;;;;;10.75;2.70;;;;;;;13.59;64.05;100989.25;3577097;40;20428;-61
2022/11/03 02:58:42;;;;;;;11.13;2.42;;;;;;;13.57;64.32;100978.56;3578690;40;20060;-62
2022/11/03 03:01:24;;;;;;;12.15;3.15;;;;;;;13.57;64.36;100973.16;3578465;40;20071;-60
2022/11/03 03:04:00;;;;;;;7.63;2.20;;;;;;;13.55;64.61;100980.53;3580860;40;20381;-60
2022/11/03 03:06:36;;;;;;;12.00;2.78;;;;;;;13.56;64.49;100965.16;3580469;40;20056;-60
2022/11/03 03:09:10;;;;;;;9.77;2.65;;;;;;;13.59;64.67;100967.66;3579839;40;20067;-60
2022/11/03 03:11:42;;;;;;;13.07;2.63;;;;;;;13.59;64.56;100951.44;3581488;40;20052;-60
2022/11/03 03:14:14;;;;;;;11.18;2.60;;;;;;;13.61;64.25;100954.91;3579034;40;20044;-60
2022/11/03 03:17:12;;;;;;;10.13;2.60;;;;;;;13.62;64.77;100954.78;3579900;40;20056;-60
2022/11/03 03:19:53;;;;;;;11.13;3.17;;;;;;;13.64;64.71;100954.69;3578459;40;20623;-60
2022/11/03 03:22:22;;;;;;;9.93;2.50;;;;;;;13.63;64.38;100940.28;3570014;40;20093;-61
2022/11/03 03:25:00;;;;;;;9.32;2.42;;;;;;;13.54;64.55;100922.09;3578753;40;20048;-60
2022/11/03 03:27:33;;;;;;;10.15;2.65;;;;;;;13.61;64.54;100939.56;3569766;40;20101;-60
2022/11/03 03:30:06;;;;;;;7.97;2.47;;;;;;;13.62;64.80;100943.13;3578351;40;20085;-61
2022/11/03 03:32:42;;;;;;;10.73;2.60;;;;;;;13.58;64.55;100937.09;3581554;40;20134;-60
2022/11/03 03:35:16;;;;;;;9.98;2.72;;;;;;;13.58;64.80;100931.69;3581088;40;20119;-60
2022/11/03 03:37:50;;;;;;;12.27;3.13;;;;;;;13.57;64.95;100929.94;3579457;40;20052;-61
2022/11/03 03:40:26;;;;;;;12.05;2.75;;;;;;;13.54;65.14;100924.78;3579448;40;20669;-60
2022/11/03 03:42:52;;;;;;;8.85;2.40;;;;;;;13.55;65.13;100929.19;3579673;40;20052;-61
2022/11/03 03:45:19;;;;;;;8.07;2.53;;;;;;;13.56;65.22;100921.97;3579375;40;20288;-60
2022/11/03 03:47:47;;;;;;;9.63;2.50;;;;;;;13.54;65.24;100918.50;3579127;40;20070;-60
2022/11/03 03:50:12;;;;;;;12.77;2.92;;;;;;;13.56;65.23;100912.00;3580264;40;20303;-60
2022/11/03 03:52:38;;;;;;;11.73;2.65;;;;;;;13.58;65.61;100911.91;3581184;40;20052;-59
2022/11/03 03:55:17;;;;;;;10.40;3.00;;;;;;;13.57;65.30;100897.53;3578231;40;20099;-60
2022/11/03 03:57:43;;;;;;;10.65;2.80;;;;;;;13.57;65.82;100892.13;3580314;40;20393;-60
2022/11/03 04:00:14;;;;;;;10.25;2.53;;;;;;;13.59;65.71;100894.72;3579985;40;20066;-60
2022/11/03 04:02:40;;;;;;;7.90;2.70;;;;;;;13.60;65.74;100897.28;3578851;40;20053;-60
2022/11/03 04:05:06;;;;;;;11.23;2.53;;;;;;;13.60;65.83;100905.41;3579420;40;20419;-60
2022/11/03 04:07:47;;;;;;;10.38;2.70;;;;;;;13.60;65.91;100894.59;3576544;40;20052;-60
2022/11/03 04:10:18;;;;;;;14.25;2.72;;;;;;;13.60;65.90;100889.19;3576400;40;20059;-60
2022/11/03 04:23:51;;;;;;;10.95;2.58;;;;;;;13.65;66.08;100888.88;3576585;40;20134;-60
2022/11/03 04:26:23;;;;;;;10.75;3.08;;;;;;;13.66;66.52;100879.78;3578495;40;20307;-60
2022/11/03 04:28:52;;;;;;;7.95;2.60;;;;;;;13.64;66.56;100882.63;3578650;40;20063;-60
2022/11/03 04:31:20;;;;;;;10.18;3.08;;;;;;;13.65;66.82;100864.56;3578531;40;20061;-61
2022/11/03 04:33:47;;;;;;;11.32;2.78;;;;;;;13.65;66.64;100870.81;3579607;40;20085;-60
2022/11/03 04:36:25;;;;;;;12.18;2.75;;;;;;;13.68;66.79;100870.59;3579157;40;20097;-61
2022/11/03 04:38:52;;;;;;;10.95;2.55;;;;;;;13.69;66.89;100872.31;3578498;40;20354;-60
2022/11/03 04:41:32;;;;;;;9.07;2.42;;;;;;;13.69;66.76;100866.91;3578818;40;20060;-61
2022/11/03 04:43:58;;;;;;;12.80;3.15;;;;;;;13.66;67.00;100859.03;3578660;40;20048;-60
2022/11/03 04:46:30;;;;;;;9.18;2.60;;;;;;;13.57;67.01;100842.66;3580108;40;20052;-60
2022/11/03 04:48:59;;;;;;;13.60;2.88;;;;;;;13.71;67.31;100856.00;3579600;40;20070;-59
2022/11/03 04:51:33;;;;;;;8.63;2.40;;;;;;;13.71;67.44;100856.00;3581465;40;20387;-60
2022/11/03 04:54:14;;;;;;;7.47;2.55;;;;;;;13.69;67.47;100857.94;3578295;40;20056;-60
2022/11/03 04:56:40;;;;;;;8.45;2.83;;;;;;;13.72;67.44;100852.31;3581221;40;20068;-60
2022/11/03 04:59:15;;;;;;;26.27;16.15;;;;;;;13.73;67.64;100839.66;3578773;40;20644;-61
2022/11/03 05:01:44;;;;;;;13.07;4.72;;;;;;;13.76;67.68;100842.13;3576582;40;20068;-61
2022/11/03 05:04:17;;;;;;;7.60;2.53;;;;;;;13.76;67.64;100839.44;3578799;40;20057;-60
2022/11/03 05:06:51;;;;;;;11.88;2.78;;;;;;;13.76;67.68;100831.34;3578319;40;20056;-60
2022/11/03 05:09:26;;;;;;;13.85;2.95;;;;;;;13.74;67.88;100827.91;3577704;40;20335;-61
2022/11/03 05:11:51;;;;;;;10.05;2.47;;;;;;;13.18;67.61;100740.16;3579347;40;20127;-60
2022/11/03 05:14:26;;;;;;;12.45;2.65;;;;;;;13.73;67.89;100826.16;3579524;40;20063;-60
2022/11/03 05:16:54;;;;;;;9.73;2.97;;;;;;;13.73;68.01;100826.16;3579527;40;20052;-61
2022/11/03 05:19:32;;;;;;;11.02;3.00;;;;;;;13.73;68.29;100818.06;3577093;40;20056;-59
2022/11/03 05:22:02;;;;;;;8.95;2.40;;;;;;;13.71;68.34;100818.19;3578686;40;20106;-59
2022/11/03 05:24:29;;;;;;;10.70;2.72;;;;;;;13.74;68.60;100806.28;3582016;40;20403;-59
2022/11/03 05:26:57;;;;;;;8.63;2.70;;;;;;;13.77;68.84;100793.41;3580249;40;20056;-59
2022/11/03 05:29:37;;;;;;;8.00;2.40;;;;;;;13.79;68.89;100799.53;3580910;40;20118;-59
2022/11/03 05:32:20;;;;;;;8.77;2.30;;;;;;;13.79;68.64;100796.84;3577621;40;20469;-59
2022/11/03 05:34:50;;;;;;;13.18;2.50;;;;;;;13.83;68.74;100789.38;3579110;40;20048;-59
2022/11/03 05:37:33;;;;;;;6.70;2.65;;;;;;;13.83;69.17;100783.97;3582594;40;20402;-59
2022/11/03 05:40:24;;;;;;;10.50;2.50;;;;;;;13.84;69.16;100791.09;3579765;40;20064;-59
2022/11/03 05:42:59;;;;;;;10.07;2.47;;;;;;;13.85;69.03;100782.84;3579976;40;20121;-59
2022/11/03 05:45:36;;;;;;;8.20;2.47;;;;;;;13.87;69.01;100780.06;3579897;40;20475;-59
2022/11/03 05:48:20;;;;;;;13.18;2.60;;;;;;;13.82;68.87;100771.44;3577976;40;20111;-59
2022/11/03 05:50:46;;;;;;;14.55;2.90;;;;;;;13.82;69.48;100772.28;3579782;40;20036;-59
2022/11/03 05:53:29;;;;;;;10.32;2.72;;;;;;;13.84;69.43;100769.47;3580386;40;20055;-59
2022/11/03 05:56:02;;;;;;;9.27;2.72;;;;;;;13.85;69.16;100765.78;3577815;40;20307;-59
2022/11/03 05:58:37;;;;;;;8.93;2.77;;;;;;;13.83;69.45;100756.97;3578860;40;20075;-59
2022/11/03 06:01:29;;;;;;;10.15;2.95;;;;;;;13.84;69.33;100754.13;3578150;40;20057;-59
2022/11/03 06:03:56;;;;;;;11.07;2.63;;;;;;;13.84;69.21;100753.28;3577849;40;20338;-60
2022/11/03 06:06:32;;;;;;;11.32;2.90;;;;;;;13.82;69.44;100744.41;3579799;40;20060;-59
2022/11/03 06:09:02;;;;;;;10.77;2.30;;;;;;;13.85;69.25;100746.88;3579209;40;20053;-60
2022/11/03 06:11:35;;;;;;;12.15;2.72;;;;;;;13.80;69.20;100741.84;3582812;40;20058;-61
2022/11/03 06:14:16;;;;;;;8.77;2.60;;;;;;;13.77;69.40;100722.31;3576487;40;20674;-61
2022/11/03 06:17:10;;;;;;;6.65;2.38;;;;;;;13.83;69.87;100740.75;3580154;40;20064;-59
2022/11/03 06:19:43;;;;;;;;;;;;;;;13.82;69.53;100733.59;3577317;40;20103;-60
2022/11/03 06:22:33;;;;;;;8.98;2.10;;;;;;;13.84;69.46;100731.66;3580116;40;19932;-60
2022/11/03 06:25:14;;;;;;;13.05;2.83;;;;;;;13.85;69.40;100717.16;3581476;40;20149;-59
2022/11/03 06:27:40;;;;;;;10.07;2.72;;;;;;;13.88;69.47;100716.91;3579583;40;20122;-59
2022/11/03 06:30:33;;;;;;;10.05;2.78;;;;;;;13.89;69.48;100721.34;3578449;40;20080;-58
2022/11/03 06:33:29;;;;;;;10.18;2.90;;;;;;;13.87;69.43;100721.47;3577555;40;20056;-59
2022/11/03 06:36:14;;;;;;;8.73;2.92;;;;;;;13.90;68.93;100720.38;3576922;40;20044;-59
2022/11/03 06:38:40;;;;;;;8.77;3.05;;;;;;;13.91;69.00;100724.78;3579565;40;20126;-59
2022/11/03 06:41:22;;;;;;;8.63;2.53;;;;;;;13.89;69.03;100714.13;3580497;40;20049;-59
2022/11/03 06:43:47;;;;;;;10.38;2.85;;;;;;;13.92;69.16;100715.69;3580860;40;20063;-60
2022/11/03 06:46:21;;;;;;;12.50;2.80;;;;;;;13.92;69.21;100710.28;3576714;40;20045;-59
2022/11/03 06:48:47;;;;;;;8.10;2.40;;;;;;;13.91;68.94;100711.28;3577839;40;20053;-60
2022/11/03 06:51:22;;;;;;;13.63;3.47;;;;;;;13.89;69.19;100713.22;3577921;40;20059;-60
2022/11/03 06:53:54;;;;;;;10.77;2.58;;;;;;;13.78;69.16;100694.31;3579131;40;20060;-59
2022/11/03 06:56:25;;;;;;;7.43;2.50;;;;;;;13.90;69.26;100714.97;3581221;40;20051;-60
2022/11/03 06:58:57;;;;;;;10.65;2.30;;;;;;;13.89;69.20;100706.00;3579312;40;20056;-59
2022/11/03 07:01:34;;;;;;;10.48;3.13;;;;;;;13.93;68.79;100703.91;3578321;40;20092;-59
2022/11/03 07:04:14;;;;;;;14.25;3.00;;;;;;;13.92;68.82;100707.59;3577127;40;20072;-59
2022/11/03 07:06:42;;;;;;;9.02;2.70;;;;;;;13.91;68.86;100701.31;3580782;40;20108;-59
2022/11/03 07:09:21;;;;;;;8.45;2.60;;;;;;;13.93;68.89;100704.78;3578334;40;20056;-59
2022/11/03 07:11:56;;;;;;;9.45;2.60;;;;;;;13.95;68.63;100696.53;3579503;40;20235;-59
2022/11/03 07:14:27;;;;;;;10.57;2.85;;;;;;;13.96;68.46;100692.88;3582160;40;20390;-59
2022/11/03 07:17:04;;;;;;;12.75;2.65;;;;;;;13.99;68.28;100687.22;3577109;40;20130;-59
2022/11/03 07:19:40;;;;;;;11.82;2.90;;;;;;;14.02;68.25;100695.09;3577699;40;20098;-59
2022/11/03 07:22:22;;;;;;;9.40;3.03;;;;;;;14.03;68.17;100694.09;3578536;40;20305;-59
2022/11/03 07:24:54;;;;;;;9.25;2.60;;;;;;;13.96;68.02;100665.84;3578000;40;20069;-59
2022/11/03 07:27:23;;;;;;;11.93;3.05;;;;;;;14.09;68.18;100680.13;3582865;40;20079;-60
2022/11/03 07:29:59;;;;;;;9.00;2.50;;;;;;;14.10;67.85;100679.13;3577421;40;20376;-59
2022/11/03 07:32:32;;;;;;;8.23;2.63;;;;;;;14.14;67.31;100667.09;3577824;40;20060;-59
2022/11/03 07:35:30;;;;;;;11.55;2.40;;;;;;;14.14;67.31;100664.41;3578516;40;20146;-59
2022/11/03 07:38:02;;;;;;;11.35;2.95;;;;;;;14.19;67.17;100664.03;3574492;40;20063;-59
2022/11/03 07:40:33;;;;;;;10.25;2.20;;;;;;;14.20;67.15;100662.16;3581830;40;20056;-59
2022/11/03 07:43:13;;;;;;;10.52;2.88;;;;;;;14.21;67.42;100655.78;3577336;40;20076;-59
2022/11/03 07:46:00;;;;;;;9.68;2.63;;;;;;;14.24;67.04;100666.34;3578908;40;20056;-59
2022/11/03 07:48:32;;;;;;;11.65;2.60;;;;;;;14.28;67.07;100670.53;3578892;40;20566;-59
2022/11/03 07:51:14;;;;;;;11.25;2.83;;;;;;;14.29;66.81;100667.69;3579626;40;20052;-59
2022/11/03 07:53:46;;;;;;;9.10;2.42;;;;;;;14.31;66.59;100673.88;3580688;40;20060;-60
2022/11/03 07:56:28;;;;;;;15.52;3.15;;;;;;;14.32;66.33;100677.41;3580901;40;20061;-59
2022/11/03 07:59:03;;;;;;;8.27;2.63;;;;;;;14.31;66.43;100683.81;3580787;40;20099;-59
2022/11/03 08:01:35;;;;;;;8.98;2.63;;;;;;;14.34;65.92;100680.88;3580024;40;20338;-59
2022/11/03 08:04:07;;;;;;;7.55;2.42;;;;;;;14.34;65.97;100675.47;3577379;40;20106;-59
2022/11/03 08:06:33;;;;;;;6.07;2.33;;;;;;;14.37;65.80;100681.50;3581558;40;20052;-59
2022/11/03 08:08:59;;;;;;;8.57;2.40;;;;;;;14.39;66.12;100657.00;3580946;40;20068;-59
2022/11/03 08:11:25;;;;;;;8.25;2.25;;;;;;;14.41;65.95;100652.34;3579685;40;20061;-59
2022/11/03 08:13:51;;;;;;;9.77;2.45;;;;;;;14.44;66.06;100653.94;3567592;40;20115;-59
2022/11/03 08:16:18;;;;;;;9.05;2.55;;;;;;;14.45;65.82;100653.81;3583067;40;20137;-59
2022/11/03 08:18:44;;;;;;;7.30;2.13;;;;;;;14.42;65.54;100629.72;3578512;40;20056;-59
2022/11/03 08:21:10;;;;;;;10.45;2.65;;;;;;;14.45;65.55;100623.22;3577681;40;20060;-59
2022/11/03 08:23:35;;;;;;;11.00;2.78;;;;;;;14.49;65.51;100625.53;3581682;40;20057;-60
2022/11/03 08:26:01;;;;;;;10.00;2.40;;;;;;;14.54;65.43;100617.09;3580504;40;20114;-60
2022/11/03 08:28:27;;;;;;;11.10;2.58;;;;;;;14.54;65.19;100614.38;3583762;40;20052;-59
2022/11/03 08:30:53;;;;;;;10.95;2.53;;;;;;;14.55;65.26;100614.22;3578341;40;20063;-59
2022/11/03 08:33:19;;;;;;;11.20;2.85;;;;;;;14.58;65.42;100603.16;3579526;40;20076;-60
2022/11/03 08:35:44;;;;;;;22.10;13.23;;;;;;;14.60;65.39;100601.19;3578105;40;20048;-60
2022/11/03 08:38:10;;;;;;;6.80;3.00;;;;;;;14.62;64.99;100596.53;3578726;40;20140;-59
2022/11/03 08:40:36;;;;;;;9.75;2.85;;;;;;;14.68;64.57;100580.75;3583142;40;20055;-59
2022/11/03 08:43:02;;;;;;;7.50;2.53;;;;;;;14.71;64.71;100564.28;3577091;40;20074;-59
2022/11/03 08:45:29;;;;;;;7.95;2.17;;;;;;;14.73;64.13;100556.91;3578729;40;20363;-59
2022/11/03 08:47:55;;;;;;;9.55;2.38;;;;;;;14.78;64.32;100550.13;3580224;40;20138;-59
2022/11/03 08:50:22;;;;;;;7.70;2.47;;;;;;;14.83;64.13;100553.28;3582194;40;20399;-60
2022/11/03 08:52:48;;;;;;;7.50;2.45;;;;;;;14.91;63.91;100544.53;3581517;40;20115;-59
2022/11/03 08:55:14;;;;;;;11.15;2.13;;;;;;;14.94;63.70;100538.88;3580920;40;20594;-59
2022/11/03 08:57:40;;;;;;;6.70;2.00;;;;;;;14.98;63.22;100537.59;3581095;40;20276;-60
2022/11/03 09:00:06;;;;;;;8.48;2.15;;;;;;;15.08;63.28;100534.97;3578657;40;20068;-60
2022/11/03 09:02:33;;;;;;;6.72;2.53;;;;;;;15.13;62.38;100519.22;3582369;40;20052;-59
2022/11/03 09:04:58;;;;;;;6.53;2.80;;;;;;;15.15;61.99;100508.22;3575590;40;21140;-61
2022/11/03 09:07:24;;;;;;;6.57;2.22;;;;;;;15.23;62.63;100512.00;3580404;40;20066;-61
2022/11/03 09:09:50;;;;;;;12.00;2.60;;;;;;;15.31;62.11;100503.19;3578424;40;20052;-60
2022/11/03 09:12:15;;;;;;;6.32;2.28;;;;;;;15.38;61.88;100499.00;3581178;40;20123;-61
2022/11/03 09:14:41;;;;;;;6.43;2.30;;;;;;;15.39;60.84;100480.88;3580326;40;20052;-61
2022/11/03 09:17:07;;;;;;;8.32;2.17;;;;;;;15.48;60.53;100483.63;3579253;40;20069;-60
2022/11/03 09:19:33;;;;;;;6.68;2.47;;;;;;;15.54;60.96;100483.09;3570021;40;20434;-61
2022/11/03 09:22:01;;;;;;;7.22;2.10;;;;;;;15.56;60.32;100464.84;3577900;40;20074;-60
2022/11/03 09:24:27;;;;;;;11.00;2.45;;;;;;;15.59;60.68;100444.75;3579423;40;20063;-60
2022/11/03 09:26:52;;;;;;;8.50;2.50;;;;;;;15.63;60.20;100450.75;3579300;40;20048;-60
2022/11/03 09:29:18;;;;;;;7.90;2.22;;;;;;;15.65;60.33;100437.94;3581539;40;20063;-60
2022/11/03 09:31:43;;;;;;;9.95;2.25;;;;;;;15.67;59.87;100439.53;3580560;40;20052;-61
2022/11/03 09:34:09;;;;;;;7.25;1.98;;;;;;;15.71;59.51;100437.41;3580409;40;20057;-61
2022/11/03 09:36:35;;;;;;;6.47;2.13;;;;;;;15.66;59.91;100416.09;3577935;40;20056;-60
2022/11/03 09:39:00;;;;;;;6.00;1.90;;;;;;;15.73;59.95;100416.44;3577891;40;20064;-60
2022/11/03 09:41:26;;;;;;;7.78;2.05;;;;;;;15.73;59.92;100422.75;3581482;40;20048;-58
2022/11/03 09:43:56;;;;;;;8.07;2.60;;;;;;;15.73;59.25;100417.31;3580012;40;20052;-59
2022/11/03 09:46:21;;;;;;;5.43;2.00;;;;;;;15.72;58.82;100410.16;3581865;40;20056;-59
2022/11/03 09:48:47;;;;;;;7.85;1.98;;;;;;;15.65;59.43;100408.97;3577190;40;20091;-60
2022/11/03 09:51:20;;;;;;;7.80;2.30;;;;;;;15.73;59.61;100401.06;3575061;40;20060;-60
2022/11/03 09:53:47;;;;;;;10.05;2.38;;;;;;;15.72;59.35;100402.03;3578073;40;20068;-60
2022/11/03 09:56:14;;;;;;;10.60;2.67;;;;;;;15.68;59.58;100392.47;3578524;40;20059;-60
2022/11/03 09:58:40;;;;;;;8.07;1.83;;;;;;;15.63;59.21;100388.44;3580192;40;20061;-59
2022/11/03 10:01:10;;;;;;;7.30;1.98;;;;;;;15.68;58.86;100387.06;3580226;40;20055;-60
2022/11/03 10:03:38;;;;;;;9.95;2.17;;;;;;;15.68;59.30;100392.47;3578036;40;20167;-60
2022/11/03 10:06:04;;;;;;;4.38;1.70;;;;;;;15.66;59.26;100377.31;3578434;40;20048;-60
2022/11/03 10:08:36;;;;;;;6.25;2.20;;;;;;;15.65;59.76;100376.47;3569568;40;20100;-60
2022/11/03 10:11:05;;;;;;;7.82;2.30;;;;;;;15.65;59.06;100370.19;3571780;40;20464;-59
2022/11/03 10:13:46;;;;;;;5.85;2.25;;;;;;;15.66;59.11;100366.47;3580259;40;20056;-60
2022/11/03 10:16:20;;;;;;;6.28;2.25;;;;;;;15.63;59.17;100366.75;3579313;40;20340;-60
2022/11/03 10:18:46;;;;;;;26.05;15.48;;;;;;;15.63;59.33;100355.91;3581302;40;20310;-60
2022/11/03 10:21:39;;;;;;;8.75;3.47;;;;;;;15.18;60.27;100275.13;3578165;40;20049;-60
2022/11/03 10:24:05;;;;;;;7.83;2.20;;;;;;;15.64;60.31;100352.22;3577892;40;20061;-60
2022/11/03 10:26:45;;;;;;;7.78;2.53;;;;;;;15.61;59.65;100353.34;3568981;40;20338;-61
2022/11/03 10:29:24;;;;;;;7.60;2.42;;;;;;;15.64;59.44;100341.38;3579795;40;20356;-60
2022/11/03 10:31:54;;;;;;;6.93;2.40;;;;;;;15.62;60.13;100327.13;3579089;40;20064;-61
2022/11/03 10:34:34;;;;;;;5.93;2.20;;;;;;;15.69;58.93;100344.56;3579719;40;20260;-60
2022/11/03 10:37:24;;;;;;;6.70;2.45;;;;;;;15.48;59.35;100291.31;3580203;40;20076;-60
2022/11/03 10:39:59;;;;;;;6.93;1.77;;;;;;;15.68;58.92;100310.34;3577025;40;20056;-60
2022/11/03 10:42:30;;;;;;;7.38;2.30;;;;;;;15.83;58.67;100317.06;3578911;40;20054;-60
2022/11/03 10:45:09;;;;;;;9.40;2.33;;;;;;;15.94;57.78;100322.31;3578939;40;20044;-60
2022/11/03 10:47:34;;;;;;;8.05;2.50;;;;;;;16.02;58.67;100313.50;3579171;40;20056;-60
2022/11/03 10:50:21;;;;;;;4.97;1.85;;;;;;;16.00;57.99;100310.91;3578907;40;20079;-60
2022/11/03 10:52:48;;;;;;;6.35;2.08;;;;;;;16.12;57.01;100308.06;3579274;40;20092;-60
2022/11/03 10:55:16;;;;;;;8.40;2.28;;;;;;;16.18;57.69;100307.50;3576793;40;20126;-60
2022/11/03 10:57:42;;;;;;;7.25;2.38;;;;;;;16.24;57.21;100306.94;3568117;40;20056;-60
2022/11/03 11:00:17;;;;;;;6.13;2.20;;;;;;;16.28;56.79;100302.91;3580414;40;20496;-60
2022/11/03 11:02:46;;;;;;;6.03;2.50;;;;;;;16.34;56.61;100291.50;3575616;40;20056;-61
2022/11/03 11:05:19;;;;;;;5.95;2.20;;;;;;;16.39;55.96;100297.31;3579254;40;20122;-60
2022/11/03 11:07:45;;;;;;;5.00;1.90;;;;;;;16.40;55.94;100285.50;3577697;40;20060;-60
2022/11/03 11:10:20;;;;;;;6.25;2.00;;;;;;;16.46;55.32;100298.47;3570193;40;20171;-60
2022/11/03 11:13:20;;;;;;;7.18;2.53;;;;;;;16.47;56.31;100283.91;3577210;40;20059;-60
2022/11/03 11:16:02;;;;;;;6.13;2.05;;;;;;;16.47;56.23;100275.75;3557791;40;20063;-60
2022/11/03 11:18:28;;;;;;;9.57;2.10;;;;;;;16.48;56.38;100272.03;3577635;40;20060;-60
2022/11/03 11:21:20;;;;;;;6.05;1.90;;;;;;;16.53;55.77;100270.75;3577218;40;20067;-60
2022/11/03 11:23:48;;;;;;;5.03;1.88;;;;;;;16.52;55.77;100261.75;3580870;40;20063;-60
2022/11/03 11:26:26;;;;;;;4.97;2.03;;;;;;;16.57;56.01;100269.44;3581283;40;20060;-60
2022/11/03 11:29:07;;;;;;;4.70;1.98;;;;;;;16.57;54.83;100247.75;3581589;40;20049;-60
2022/11/03 11:31:39;;;;;;;5.85;2.10;;;;;;;16.59;55.38;100245.75;3580387;40;20379;-60
2022/11/03 11:34:08;;;;;;;4.97;2.05;;;;;;;16.66;55.18;100236.00;3580098;40;20299;-60
2022/11/03 11:36:45;;;;;;;4.70;1.70;;;;;;;16.74;55.06;100229.81;3581045;40;20071;-60
2022/11/03 11:39:32;;;;;;;4.75;2.08;;;;;;;16.78;55.13;100212.25;3582678;40;20052;-60
2022/11/03 11:42:12;;;;;;;5.75;2.10;;;;;;;16.80;54.65;100208.38;3577144;40;20391;-60
2022/11/03 11:44:53;;;;;;;6.10;2.33;;;;;;;16.73;54.60;100211.84;3580492;40;20349;-60
2022/11/03 11:47:42;;;;;;;6.93;2.15;;;;;;;16.76;54.25;100201.56;3580292;40;20052;-60
2022/11/03 11:50:16;;;;;;;6.93;2.38;;;;;;;16.76;54.75;100190.69;3580621;40;20044;-60
2022/11/03 11:52:55;;;;;;;10.38;2.15;;;;;;;16.76;54.26;100173.56;3577794;40;20052;-60
2022/11/03 11:55:23;;;;;;;7.50;2.20;;;;;;;16.73;54.48;100166.53;3579311;40;20658;-60
2022/11/03 11:57:51;;;;;;;5.70;2.00;;;;;;;16.76;54.02;100154.56;3580858;40;20044;-60
2022/11/03 12:00:31;;;;;;;4.90;1.73;;;;;;;16.74;54.57;100142.97;3581307;40;20049;-60
2022/11/03 12:03:00;;;;;;;3.53;1.90;;;;;;;16.80;54.08;100145.97;3579657;40;20107;-60
2022/11/03 12:05:32;;;;;;;4.88;2.00;;;;;;;16.84;54.55;100130.22;3578964;40;20053;-60